• Join FlightAware (Why Join?)
  • Login
  • US Flag 
Rudolph Flight #1: Arrived! 
08:24AM EST


 

Airport Tracker/Info


-or-


 

Live Flight TrackerFlight Track Log ✈ LAK503 ✈ 30-Apr-2013 ✈ KORL - KMGY

Flight Track Log - Related Links

Times and Time Zones

All times are in EDT time to prevent confusion due to time zone crossing. See the LAK503 flight status page for this flight to view local times or setup timezone preferences in your user account.

Time Position Orientation Groundspeed Altitude Reporting Facility
EDT Latitude Longitude Course Direction KTS MPH feet Rate Location/Type
12:25PM 28.5500 -81.3167 41° Northeast 142 163 600  Level Orlando TRACON
12:26PM 28.5667 -81.3000 41° Northeast 184 212 1,400 600 Climbing Orlando TRACON
12:27PM 28.6000 -81.2500 53° Northeast 228 262 1,600 240 Climbing Orlando TRACON
12:28PM 28.6500 -81.2000 41° Northeast 207 238 2,000 780 Climbing Orlando TRACON
12:29PM 28.6833 -81.1333 60° Northeast 233 268 3,300 1,380 Climbing Orlando TRACON
12:30PM 28.7500 -81.0833 33° Northeast 276 318 4,900 840 Climbing Orlando TRACON
12:31PM 28.8000 -81.1167 330° Northwest 257 296 5,000 1,200 Climbing Orlando TRACON
12:33PM 28.8847 -81.2683 303° West 289 333 8,800 2,160 Climbing Jacksonville Center
12:34PM 28.9394 -81.3100 326° Northwest 246 283 11,700 2,820 Climbing Jacksonville Center
12:35PM 28.9983 -81.3519 328° Northwest 252 290 14,500 2,580 Climbing Jacksonville Center
12:36PM 29.0697 -81.3792 342° North 252 290 16,900 2,160 Climbing Jacksonville Center
12:37PM 29.1450 -81.4019 345° North 267 307 18,800 2,100 Climbing Jacksonville Center
12:38PM 29.2331 -81.4361 341° North 290 334 21,200 2,160 Climbing Jacksonville Center
12:39PM 29.3189 -81.4589 347° North 300 345 23,200 1,980 Climbing Jacksonville Center
12:40PM 29.4008 -81.4933 340° North 306 352 25,200 2,040 Climbing Jacksonville Center
12:41PM 29.4847 -81.5231 343° North 306 352 27,300 1,800 Climbing Jacksonville Center
12:42PM 29.5683 -81.5506 344° North 306 352 28,900 1,200 Climbing Jacksonville Center
12:43PM 29.6586 -81.5828 343° North 318 366 29,700 900 Climbing Jacksonville Center
12:44PM 29.7547 -81.6128 345° North 338 389 30,700 960 Climbing Jacksonville Center
12:45PM 29.8492 -81.6472 342° North 345 397 31,700 1,380 Climbing Jacksonville Center
12:46PM 29.9433 -81.6797 343° North 350 403 33,500 1,860 Climbing Jacksonville Center
12:47PM 30.0314 -81.7097 344° North 343 395 35,500 1,800 Climbing Jacksonville Center
12:48PM 30.1131 -81.7353 345° North 318 366 37,100 1,260 Climbing Jacksonville Center
12:49PM 30.1947 -81.7606 345° North 306 352 38,100 960 Climbing Jacksonville Center
12:50PM 30.2722 -81.7886 343° North 301 346 39,100 840 Climbing Jacksonville Center
12:51PM 30.3517 -81.8167 343° North 301 346 39,800 600 Climbing Jacksonville Center
12:52PM 30.4356 -81.8444 344° North 306 352 40,400 600 Climbing Jacksonville Center
12:53PM 30.5172 -81.8725 344° North 313 360 41,000 300 Climbing Jacksonville Center
12:54PM 30.5989 -81.9103 338° Northwest 320 368 41,000  Level Jacksonville Center
12:55PM 30.6867 -81.9383 345° North 325 374 41,000  Level Jacksonville Center
12:56PM 30.7789 -81.9714 343° North 330 380 41,000  Level Jacksonville Center
12:57PM 30.8772 -82.0067 343° North 344 396 41,000  Level Jacksonville Center
12:58PM 30.9714 -82.0422 342° North 349 402 41,000  Level Jacksonville Center
12:59PM 31.0719 -82.0753 344° North 360 414 41,000  Level Jacksonville Center
01:00PM 31.1703 -82.1131 342° North 366 421 41,000  Level Jacksonville Center
01:01PM 31.2708 -82.1536 341° North 366 421 41,000  Level Jacksonville Center
01:02PM 31.3711 -82.1844 345° North 366 421 41,000  Level Jacksonville Center
01:03PM 31.4717 -82.2228 342° North 366 421 41,000  Level Jacksonville Center
01:05PM 31.6506 -82.2825 344° North 367 422 41,000  Level Atlanta Center
01:06PM 31.7514 -82.3169 344° North 367 422 41,000  Level Atlanta Center
01:07PM 31.8519 -82.3567 341° North 372 428 41,000  Level Atlanta Center
01:08PM 31.9547 -82.3914 344° North 372 428 41,000  Level Atlanta Center
01:09PM 32.0556 -82.4314 341° North 372 428 41,000  Level Atlanta Center
01:10PM 32.1561 -82.4664 344° North 372 428 41,000  Level Atlanta Center
01:11PM 32.2525 -82.5039 342° North 372 428 41,000  Level Atlanta Center
01:12PM 32.3531 -82.5389 344° North 366 421 41,000  Level Atlanta Center
01:13PM 32.4558 -82.5742 344° North 371 427 41,000  Level Atlanta Center
01:14PM 32.5564 -82.6119 342° North 371 427 41,000  Level Atlanta Center
01:15PM 32.6550 -82.6497 342° North 371 427 41,000  Level Atlanta Center
01:16PM 32.7558 -82.6928 340° North 371 427 41,000  Level Atlanta Center
01:17PM 32.8606 -82.7258 345° North 371 427 41,000  Level Atlanta Center
01:18PM 32.9631 -82.7639 343° North 376 433 41,000  Level Atlanta Center
01:19PM 33.0658 -82.8044 342° North 381 438 41,000  Level Atlanta Center
01:20PM 33.1686 -82.8428 343° North 381 438 41,000  Level Atlanta Center
01:21PM 33.2689 -82.8786 343° North 386 444 41,000  Level Atlanta Center
01:22PM 33.3736 -82.9169 343° North 387 445 41,000  Level Atlanta Center
01:23PM 33.4783 -82.9556 343° North 387 445 41,000  Level Atlanta Center
01:24PM 33.5811 -82.9917 344° North 379 436 41,000  Level Atlanta Center
01:25PM 33.6817 -83.0328 341° North 386 444 41,000  Level Atlanta Center
01:26PM 33.7842 -83.0692 344° North 381 438 41,000  Level Atlanta Center
01:27PM 33.8889 -83.1103 342° North 387 445 41,000  Level Atlanta Center
01:28PM 33.9892 -83.1469 343° North 387 445 41,000  Level Atlanta Center
01:29PM 34.0939 -83.1883 342° North 381 438 41,000  Level Atlanta Center
01:30PM 34.1986 -83.2275 343° North 387 445 41,000  Level Atlanta Center
01:31PM 34.3053 -83.2667 343° North 387 445 41,000  Level Atlanta Center
01:32PM 34.3994 -83.3036 342° North 392 451 41,000  Level Atlanta Center
01:33PM 34.5019 -83.3431 342° North 386 444 41,000  Level Atlanta Center
01:34PM 34.6064 -83.3850 342° North 386 444 41,000  Level Atlanta Center
01:35PM 34.7214 -83.4297 342° North 386 444 41,000  Level Atlanta Center
01:36PM 34.8239 -83.4719 341° North 386 444 41,000  Level Atlanta Center
01:37PM 34.9283 -83.5117 343° North 386 444 41,000  Level Atlanta Center
01:38PM 35.0267 -83.5467 344° North 394 453 41,000  Level Atlanta Center
01:39PM 35.1394 -83.5942 341° North 389 448 41,000  Level Atlanta Center
01:40PM 35.2439 -83.6344 343° North 389 448 41,000  Level Atlanta Center
01:41PM 35.3506 -83.6747 343° North 389 448 41,000  Level Atlanta Center
01:42PM 35.4550 -83.7175 342° North 389 448 41,000  Level Atlanta Center
01:43PM 35.5614 -83.7606 342° North 389 448 41,000  Level Atlanta Center
01:44PM 35.6681 -83.8011 343° North 389 448 41,000  Level Atlanta Center
01:45PM 35.7722 -83.8442 341° North 389 448 41,000  Level Atlanta Center
01:46PM 35.9417 -83.9000 345° North 396 456 41,000  Level Indianapolis Center
01:47PM 36.0528 -83.9158 353° North 401 461 41,000  Level Indianapolis Center
01:48PM 36.1642 -83.9342 352° North 403 464 41,000  Level Indianapolis Center
01:50PM 36.2744 -83.9486 354° North 401 461 41,000  Level Indianapolis Center
01:51PM 36.3853 -83.9667 353° North 401 461 41,000  Level Indianapolis Center
01:52PM 36.4969 -83.9808 354° North 404 465 41,000  Level Indianapolis Center
01:53PM 36.6158 -84.0014 352° North 405 466 41,000  Level Indianapolis Center
01:54PM 36.7464 -84.0194 354° North 403 464 41,000  Level Indianapolis Center
01:55PM 36.8592 -84.0367 353° North 405 466 41,000 -360 Level Indianapolis Center
01:56PM 36.9733 -84.0547 353° North 408 470 40,300 -840 Descending Indianapolis Center
01:57PM 37.0892 -84.0700 354° North 414 476 39,300 -1,020 Descending Indianapolis Center
01:58PM 37.2058 -84.0900 352° North 418 481 38,300 -1,020 Descending Indianapolis Center
01:59PM 37.3211 -84.1056 354° North 416 479 37,300 -960 Descending Indianapolis Center
02:00PM 37.4331 -84.1244 352° North 406 467 36,400 -1,020 Descending Indianapolis Center
02:01PM 37.5622 -84.1411 354° North 397 457 35,200 -1,080 Descending Indianapolis Center
02:02PM 37.6728 -84.1619 352° North 401 461 34,200 -1,020 Descending Indianapolis Center
02:03PM 37.7842 -84.1758 354° North 399 459 33,200 -1,020 Descending Indianapolis Center
02:04PM 37.8975 -84.1942 353° North 406 467 32,200 -960 Descending Indianapolis Center
02:05PM 38.0144 -84.2119 353° North 418 481 31,300 -960 Descending Indianapolis Center
02:06PM 38.1300 -84.2297 353° North 418 481 30,300 -1,440 Descending Indianapolis Center
02:07PM 38.2467 -84.2475 353° North 420 483 28,400 -2,280 Descending Indianapolis Center
02:08PM 38.3822 -84.2672 353° North 418 481 25,600 -2,580 Descending Indianapolis Center
02:09PM 38.4928 -84.2867 352° North 401 461 23,100 -2,460 Descending Indianapolis Center
02:10PM 38.5983 -84.3011 354° North 384 442 20,600 -2,400 Descending Indianapolis Center
02:11PM 38.6986 -84.3089 357° North 369 425 18,200 -2,400 Descending Indianapolis Center
02:12PM 38.7994 -84.2944 North 366 421 15,800 -2,220 Descending Indianapolis Center
02:13PM 38.8958 -84.2897 North 350 403 13,700 -2,040 Descending Indianapolis Center
02:14PM 38.9797 -84.2800 North 313 360 11,600 -2,220 Descending Indianapolis Center
02:15PM 39.0733 -84.2711 North 290 334 9,200 -1,800 Descending Indianapolis Center
02:16PM 39.1511 -84.2642 North 279 321 8,000 -780 Descending Indianapolis Center
02:17PM 39.1969 -84.2622 North 272 313 8,000  Level Indianapolis Center
02:17PM 39.2278 -84.2592 North 274 315 8,000 -120 Level Indianapolis Center
02:18PM 39.3019 -84.2528 North 270 311 7,900 -1,020 Descending Indianapolis Center
02:19PM 39.3778 -84.2439 North 269 310 6,000 -1,920 Descending Indianapolis Center
02:20PM 39.4453 -84.2397 North 255 293 4,000 -1,500 Descending Indianapolis Center
02:21PM 39.5081 -84.2322 North 236 272 3,000 -540 Descending Indianapolis Center
02:22PM 39.5617 -84.2183 11° North 213 245 2,900 -420 Descending Indianapolis Center
02:24PM 39.5961 -84.1892 33° Northeast 165 190 2,200 -480 Descending Indianapolis Center
02:25PM 39.6289 -84.2122 332° Northwest 152 175 2,000 -540 Descending Indianapolis Center
02:26PM 39.5878 -84.2247 193° South 112 129 1,100 -300 Descending Indianapolis Center
02:28PM 39.5878 -84.2247 218° Southwest 112 129 1,100  Level Indianapolis Center